sensor_id;sensor_type;location;lat;lon;timestamp;P1;durP1;ratioP1;P2;durP2;ratioP2
54372;SDS011;69157;53.094;10.016;2023-08-07T00:00:28;1.67;;;1.27;;
54372;SDS011;69157;53.094;10.016;2023-08-07T00:02:54;1.95;;;1.23;;
54372;SDS011;69157;53.094;10.016;2023-08-07T00:05:21;4.93;;;1.80;;
54372;SDS011;69157;53.094;10.016;2023-08-07T00:07:47;2.67;;;1.27;;
54372;SDS011;69157;53.094;10.016;2023-08-07T00:10:13;2.00;;;1.30;;
54372;SDS011;69157;53.094;10.016;2023-08-07T00:12:39;4.18;;;1.30;;
54372;SDS011;69157;53.094;10.016;2023-08-07T00:15:05;4.60;;;1.42;;
54372;SDS011;69157;53.094;10.016;2023-08-07T00:17:32;2.13;;;1.23;;
54372;SDS011;69157;53.094;10.016;2023-08-07T00:19:58;2.38;;;1.63;;
54372;SDS011;69157;53.094;10.016;2023-08-07T00:22:24;2.20;;;1.65;;
54372;SDS011;69157;53.094;10.016;2023-08-07T00:24:50;3.97;;;1.55;;
54372;SDS011;69157;53.094;10.016;2023-08-07T00:27:16;3.47;;;1.45;;
54372;SDS011;69157;53.094;10.016;2023-08-07T00:29:42;3.75;;;1.63;;
54372;SDS011;69157;53.094;10.016;2023-08-07T00:32:08;4.32;;;1.77;;
54372;SDS011;69157;53.094;10.016;2023-08-07T00:34:34;2.35;;;1.40;;
54372;SDS011;69157;53.094;10.016;2023-08-07T00:37:00;1.92;;;1.33;;
54372;SDS011;69157;53.094;10.016;2023-08-07T00:39:26;2.17;;;1.42;;
54372;SDS011;69157;53.094;10.016;2023-08-07T00:41:53;2.67;;;1.40;;
54372;SDS011;69157;53.094;10.016;2023-08-07T00:44:19;1.95;;;1.50;;
54372;SDS011;69157;53.094;10.016;2023-08-07T00:46:45;1.67;;;1.20;;
54372;SDS011;69157;53.094;10.016;2023-08-07T00:49:12;2.25;;;1.55;;
54372;SDS011;69157;53.094;10.016;2023-08-07T00:51:38;1.88;;;1.60;;
54372;SDS011;69157;53.094;10.016;2023-08-07T00:54:05;2.65;;;1.25;;
54372;SDS011;69157;53.094;10.016;2023-08-07T00:56:31;1.95;;;1.40;;
54372;SDS011;69157;53.094;10.016;2023-08-07T00:58:58;2.10;;;1.40;;
54372;SDS011;69157;53.094;10.016;2023-08-07T01:01:25;1.83;;;1.10;;
54372;SDS011;69157;53.094;10.016;2023-08-07T01:03:51;5.55;;;1.52;;
54372;SDS011;69157;53.094;10.016;2023-08-07T01:06:17;1.67;;;1.30;;
54372;SDS011;69157;53.094;10.016;2023-08-07T01:08:43;3.05;;;1.35;;
54372;SDS011;69157;53.094;10.016;2023-08-07T01:14:02;2.03;;;1.45;;
54372;SDS011;69157;53.094;10.016;2023-08-07T01:16:33;2.92;;;1.85;;
54372;SDS011;69157;53.094;10.016;2023-08-07T01:19:00;3.85;;;1.67;;
54372;SDS011;69157;53.094;10.016;2023-08-07T01:21:28;8.05;;;1.50;;
54372;SDS011;69157;53.094;10.016;2023-08-07T01:23:54;3.33;;;1.60;;
54372;SDS011;69157;53.094;10.016;2023-08-07T01:26:20;4.47;;;1.67;;
54372;SDS011;69157;53.094;10.016;2023-08-07T01:28:49;3.55;;;1.63;;
54372;SDS011;69157;53.094;10.016;2023-08-07T01:31:18;1.55;;;1.40;;
54372;SDS011;69157;53.094;10.016;2023-08-07T01:33:48;2.88;;;1.80;;
54372;SDS011;69157;53.094;10.016;2023-08-07T01:36:15;2.75;;;1.63;;
54372;SDS011;69157;53.094;10.016;2023-08-07T01:38:42;2.15;;;1.45;;
54372;SDS011;69157;53.094;10.016;2023-08-07T01:41:09;3.10;;;1.45;;
54372;SDS011;69157;53.094;10.016;2023-08-07T01:43:35;5.40;;;1.70;;
54372;SDS011;69157;53.094;10.016;2023-08-07T01:46:01;3.45;;;1.70;;
54372;SDS011;69157;53.094;10.016;2023-08-07T01:48:27;5.00;;;1.67;;
54372;SDS011;69157;53.094;10.016;2023-08-07T01:50:53;4.22;;;1.60;;
54372;SDS011;69157;53.094;10.016;2023-08-07T01:53:20;2.90;;;1.75;;
54372;SDS011;69157;53.094;10.016;2023-08-07T01:55:46;4.53;;;1.50;;
54372;SDS011;69157;53.094;10.016;2023-08-07T01:58:12;5.18;;;1.60;;
54372;SDS011;69157;53.094;10.016;2023-08-07T02:00:38;2.63;;;1.67;;
54372;SDS011;69157;53.094;10.016;2023-08-07T02:03:04;4.20;;;1.70;;
54372;SDS011;69157;53.094;10.016;2023-08-07T02:05:31;3.63;;;1.30;;
54372;SDS011;69157;53.094;10.016;2023-08-07T02:07:57;5.18;;;1.42;;
54372;SDS011;69157;53.094;10.016;2023-08-07T02:10:23;2.20;;;1.50;;
54372;SDS011;69157;53.094;10.016;2023-08-07T02:12:49;4.28;;;1.60;;
54372;SDS011;69157;53.094;10.016;2023-08-07T02:15:15;3.65;;;1.30;;
54372;SDS011;69157;53.094;10.016;2023-08-07T02:17:41;4.38;;;1.48;;
54372;SDS011;69157;53.094;10.016;2023-08-07T02:20:07;1.75;;;1.40;;
54372;SDS011;69157;53.094;10.016;2023-08-07T02:22:34;1.80;;;1.30;;
54372;SDS011;69157;53.094;10.016;2023-08-07T02:25:00;2.10;;;1.50;;
54372;SDS011;69157;53.094;10.016;2023-08-07T02:27:26;2.40;;;1.38;;
54372;SDS011;69157;53.094;10.016;2023-08-07T02:29:52;1.75;;;1.40;;
54372;SDS011;69157;53.094;10.016;2023-08-07T02:32:19;1.85;;;1.45;;
54372;SDS011;69157;53.094;10.016;2023-08-07T02:34:45;2.17;;;1.38;;
54372;SDS011;69157;53.094;10.016;2023-08-07T02:37:11;1.75;;;1.40;;
54372;SDS011;69157;53.094;10.016;2023-08-07T02:39:37;4.32;;;1.80;;
54372;SDS011;69157;53.094;10.016;2023-08-07T02:42:03;4.05;;;1.40;;
54372;SDS011;69157;53.094;10.016;2023-08-07T02:44:29;2.13;;;1.15;;
54372;SDS011;69157;53.094;10.016;2023-08-07T02:46:55;3.05;;;1.40;;
54372;SDS011;69157;53.094;10.016;2023-08-07T02:49:21;1.92;;;1.20;;
54372;SDS011;69157;53.094;10.016;2023-08-07T02:51:47;2.53;;;1.70;;
54372;SDS011;69157;53.094;10.016;2023-08-07T02:54:13;2.80;;;1.35;;
54372;SDS011;69157;53.094;10.016;2023-08-07T02:56:40;2.20;;;1.40;;
54372;SDS011;69157;53.094;10.016;2023-08-07T02:59:06;5.28;;;1.75;;
54372;SDS011;69157;53.094;10.016;2023-08-07T03:01:32;2.78;;;1.38;;
54372;SDS011;69157;53.094;10.016;2023-08-07T03:03:58;4.20;;;1.67;;
54372;SDS011;69157;53.094;10.016;2023-08-07T03:06:24;3.15;;;1.65;;
54372;SDS011;69157;53.094;10.016;2023-08-07T03:08:50;2.13;;;1.30;;
54372;SDS011;69157;53.094;10.016;2023-08-07T03:11:16;6.30;;;2.17;;
54372;SDS011;69157;53.094;10.016;2023-08-07T03:13:43;3.13;;;1.60;;
54372;SDS011;69157;53.094;10.016;2023-08-07T03:16:09;3.83;;;1.70;;
54372;SDS011;69157;53.094;10.016;2023-08-07T03:18:35;7.13;;;1.60;;
54372;SDS011;69157;53.094;10.016;2023-08-07T03:21:01;1.80;;;1.33;;
54372;SDS011;69157;53.094;10.016;2023-08-07T03:23:28;4.15;;;1.55;;
54372;SDS011;69157;53.094;10.016;2023-08-07T03:26:10;2.17;;;1.50;;
54372;SDS011;69157;53.094;10.016;2023-08-07T03:28:36;3.55;;;1.50;;
54372;SDS011;69157;53.094;10.016;2023-08-07T03:31:03;3.17;;;1.70;;
54372;SDS011;69157;53.094;10.016;2023-08-07T03:33:29;3.65;;;1.75;;
54372;SDS011;69157;53.094;10.016;2023-08-07T03:35:55;2.50;;;1.40;;
54372;SDS011;69157;53.094;10.016;2023-08-07T03:38:21;3.63;;;1.67;;
54372;SDS011;69157;53.094;10.016;2023-08-07T03:40:47;1.73;;;1.40;;
54372;SDS011;69157;53.094;10.016;2023-08-07T03:43:13;2.53;;;1.80;;
54372;SDS011;69157;53.094;10.016;2023-08-07T03:45:39;2.65;;;1.70;;
54372;SDS011;69157;53.094;10.016;2023-08-07T03:48:06;5.50;;;2.03;;
54372;SDS011;69157;53.094;10.016;2023-08-07T03:50:32;2.50;;;1.50;;
54372;SDS011;69157;53.094;10.016;2023-08-07T03:53:02;2.93;;;1.90;;
54372;SDS011;69157;53.094;10.016;2023-08-07T03:55:28;4.32;;;2.08;;
54372;SDS011;69157;53.094;10.016;2023-08-07T03:57:54;2.55;;;1.38;;
54372;SDS011;69157;53.094;10.016;2023-08-07T04:00:21;2.85;;;1.60;;
54372;SDS011;69157;53.094;10.016;2023-08-07T04:02:47;4.18;;;1.50;;
54372;SDS011;69157;53.094;10.016;2023-08-07T04:05:13;5.70;;;1.77;;
54372;SDS011;69157;53.094;10.016;2023-08-07T04:07:39;6.95;;;1.75;;
54372;SDS011;69157;53.094;10.016;2023-08-07T04:10:05;5.03;;;1.40;;
54372;SDS011;69157;53.094;10.016;2023-08-07T04:12:31;3.80;;;1.90;;
54372;SDS011;69157;53.094;10.016;2023-08-07T04:14:57;3.83;;;1.58;;
54372;SDS011;69157;53.094;10.016;2023-08-07T04:17:23;2.22;;;1.40;;
54372;SDS011;69157;53.094;10.016;2023-08-07T04:19:50;2.42;;;1.50;;
54372;SDS011;69157;53.094;10.016;2023-08-07T04:22:16;3.17;;;1.40;;
54372;SDS011;69157;53.094;10.016;2023-08-07T04:24:42;2.38;;;1.55;;
54372;SDS011;69157;53.094;10.016;2023-08-07T04:27:08;2.78;;;1.25;;
54372;SDS011;69157;53.094;10.016;2023-08-07T04:29:34;2.70;;;1.60;;
54372;SDS011;69157;53.094;10.016;2023-08-07T04:32:00;2.90;;;1.27;;
54372;SDS011;69157;53.094;10.016;2023-08-07T04:34:27;2.15;;;1.10;;
54372;SDS011;69157;53.094;10.016;2023-08-07T04:36:53;1.80;;;1.38;;
54372;SDS011;69157;53.094;10.016;2023-08-07T04:39:21;2.15;;;1.40;;
54372;SDS011;69157;53.094;10.016;2023-08-07T04:41:47;2.95;;;1.27;;
54372;SDS011;69157;53.094;10.016;2023-08-07T04:44:16;1.83;;;1.15;;
54372;SDS011;69157;53.094;10.016;2023-08-07T04:46:42;2.80;;;1.40;;
54372;SDS011;69157;53.094;10.016;2023-08-07T04:49:08;1.83;;;1.38;;
54372;SDS011;69157;53.094;10.016;2023-08-07T04:51:35;1.80;;;1.17;;
54372;SDS011;69157;53.094;10.016;2023-08-07T04:54:02;1.77;;;1.10;;
54372;SDS011;69157;53.094;10.016;2023-08-07T04:56:28;1.45;;;1.10;;
54372;SDS011;69157;53.094;10.016;2023-08-07T04:58:56;2.42;;;1.20;;
54372;SDS011;69157;53.094;10.016;2023-08-07T05:01:22;1.52;;;0.95;;
54372;SDS011;69157;53.094;10.016;2023-08-07T05:03:48;1.40;;;1.00;;
54372;SDS011;69157;53.094;10.016;2023-08-07T05:06:14;1.77;;;1.02;;
54372;SDS011;69157;53.094;10.016;2023-08-07T05:08:40;1.88;;;1.20;;
54372;SDS011;69157;53.094;10.016;2023-08-07T05:11:06;1.17;;;0.95;;
54372;SDS011;69157;53.094;10.016;2023-08-07T05:13:32;1.33;;;1.05;;
54372;SDS011;69157;53.094;10.016;2023-08-07T05:15:58;3.08;;;1.30;;
54372;SDS011;69157;53.094;10.016;2023-08-07T05:18:24;1.30;;;1.10;;
54372;SDS011;69157;53.094;10.016;2023-08-07T05:20:50;1.85;;;1.25;;
54372;SDS011;69157;53.094;10.016;2023-08-07T05:23:17;2.33;;;1.20;;
54372;SDS011;69157;53.094;10.016;2023-08-07T05:25:46;1.60;;;1.00;;
54372;SDS011;69157;53.094;10.016;2023-08-07T05:28:12;1.77;;;1.23;;
54372;SDS011;69157;53.094;10.016;2023-08-07T05:30:38;3.00;;;0.80;;
54372;SDS011;69157;53.094;10.016;2023-08-07T05:33:04;2.03;;;1.15;;
54372;SDS011;69157;53.094;10.016;2023-08-07T05:35:30;1.40;;;1.20;;
54372;SDS011;69157;53.094;10.016;2023-08-07T05:37:56;1.65;;;1.20;;
54372;SDS011;69157;53.094;10.016;2023-08-07T05:40:22;1.77;;;1.20;;
54372;SDS011;69157;53.094;10.016;2023-08-07T05:42:48;1.50;;;1.10;;
54372;SDS011;69157;53.094;10.016;2023-08-07T05:45:14;1.70;;;0.98;;
54372;SDS011;69157;53.094;10.016;2023-08-07T05:47:40;2.78;;;1.33;;
54372;SDS011;69157;53.094;10.016;2023-08-07T05:50:07;1.95;;;1.27;;
54372;SDS011;69157;53.094;10.016;2023-08-07T05:52:33;1.80;;;1.25;;
54372;SDS011;69157;53.094;10.016;2023-08-07T05:54:59;2.55;;;1.30;;
54372;SDS011;69157;53.094;10.016;2023-08-07T05:57:25;2.22;;;1.38;;
54372;SDS011;69157;53.094;10.016;2023-08-07T05:59:51;1.67;;;1.25;;
54372;SDS011;69157;53.094;10.016;2023-08-07T06:02:17;1.92;;;1.33;;
54372;SDS011;69157;53.094;10.016;2023-08-07T06:04:44;5.72;;;1.70;;
54372;SDS011;69157;53.094;10.016;2023-08-07T06:07:10;4.07;;;1.45;;
54372;SDS011;69157;53.094;10.016;2023-08-07T06:09:36;2.42;;;1.30;;
54372;SDS011;69157;53.094;10.016;2023-08-07T06:12:03;2.00;;;1.50;;
54372;SDS011;69157;53.094;10.016;2023-08-07T06:14:29;3.22;;;1.40;;
54372;SDS011;69157;53.094;10.016;2023-08-07T06:16:55;2.70;;;1.60;;
54372;SDS011;69157;53.094;10.016;2023-08-07T06:19:23;2.25;;;1.35;;
54372;SDS011;69157;53.094;10.016;2023-08-07T06:21:49;2.70;;;1.40;;
54372;SDS011;69157;53.094;10.016;2023-08-07T06:24:15;4.55;;;1.02;;
54372;SDS011;69157;53.094;10.016;2023-08-07T06:26:41;1.98;;;1.30;;
54372;SDS011;69157;53.094;10.016;2023-08-07T06:29:07;4.97;;;1.30;;
54372;SDS011;69157;53.094;10.016;2023-08-07T06:31:34;2.65;;;1.30;;
54372;SDS011;69157;53.094;10.016;2023-08-07T06:34:00;1.27;;;1.13;;
54372;SDS011;69157;53.094;10.016;2023-08-07T06:36:26;2.90;;;1.45;;
54372;SDS011;69157;53.094;10.016;2023-08-07T06:38:52;2.03;;;1.10;;
54372;SDS011;69157;53.094;10.016;2023-08-07T06:41:18;1.95;;;1.30;;
54372;SDS011;69157;53.094;10.016;2023-08-07T06:43:44;2.15;;;1.05;;
54372;SDS011;69157;53.094;10.016;2023-08-07T06:46:10;4.90;;;1.40;;
54372;SDS011;69157;53.094;10.016;2023-08-07T06:48:37;2.38;;;1.20;;
54372;SDS011;69157;53.094;10.016;2023-08-07T06:51:03;3.42;;;1.30;;
54372;SDS011;69157;53.094;10.016;2023-08-07T06:53:29;1.92;;;1.17;;
54372;SDS011;69157;53.094;10.016;2023-08-07T06:55:55;1.90;;;1.00;;
54372;SDS011;69157;53.094;10.016;2023-08-07T06:58:21;2.75;;;1.27;;
54372;SDS011;69157;53.094;10.016;2023-08-07T07:00:47;1.27;;;1.17;;
54372;SDS011;69157;53.094;10.016;2023-08-07T07:03:14;2.30;;;1.30;;
54372;SDS011;69157;53.094;10.016;2023-08-07T07:05:40;1.17;;;0.93;;
54372;SDS011;69157;53.094;10.016;2023-08-07T07:08:08;3.15;;;1.35;;
54372;SDS011;69157;53.094;10.016;2023-08-07T07:10:34;2.00;;;1.23;;
54372;SDS011;69157;53.094;10.016;2023-08-07T07:13:00;7.22;;;1.40;;
54372;SDS011;69157;53.094;10.016;2023-08-07T07:15:26;4.15;;;0.93;;
54372;SDS011;69157;53.094;10.016;2023-08-07T07:17:52;1.33;;;1.05;;
54372;SDS011;69157;53.094;10.016;2023-08-07T07:20:18;2.28;;;0.90;;
54372;SDS011;69157;53.094;10.016;2023-08-07T07:22:45;3.83;;;0.93;;
54372;SDS011;69157;53.094;10.016;2023-08-07T07:25:11;2.97;;;0.80;;
54372;SDS011;69157;53.094;10.016;2023-08-07T07:27:38;1.40;;;0.88;;
54372;SDS011;69157;53.094;10.016;2023-08-07T07:30:05;2.53;;;1.05;;
54372;SDS011;69157;53.094;10.016;2023-08-07T07:32:31;2.72;;;0.90;;
54372;SDS011;69157;53.094;10.016;2023-08-07T07:34:57;4.50;;;1.23;;
54372;SDS011;69157;53.094;10.016;2023-08-07T07:37:23;2.00;;;0.75;;
54372;SDS011;69157;53.094;10.016;2023-08-07T07:39:49;2.30;;;0.98;;
54372;SDS011;69157;53.094;10.016;2023-08-07T07:42:15;3.45;;;1.30;;
54372;SDS011;69157;53.094;10.016;2023-08-07T07:44:41;1.50;;;0.70;;
54372;SDS011;69157;53.094;10.016;2023-08-07T07:47:07;1.88;;;0.90;;
54372;SDS011;69157;53.094;10.016;2023-08-07T07:49:34;2.58;;;1.08;;
54372;SDS011;69157;53.094;10.016;2023-08-07T07:52:00;4.32;;;1.20;;
54372;SDS011;69157;53.094;10.016;2023-08-07T07:54:27;2.35;;;0.90;;
54372;SDS011;69157;53.094;10.016;2023-08-07T07:56:54;1.13;;;0.80;;
54372;SDS011;69157;53.094;10.016;2023-08-07T07:59:20;2.28;;;1.05;;
54372;SDS011;69157;53.094;10.016;2023-08-07T08:01:46;3.30;;;1.00;;
54372;SDS011;69157;53.094;10.016;2023-08-07T08:04:12;3.53;;;1.00;;
54372;SDS011;69157;53.094;10.016;2023-08-07T08:06:39;3.30;;;1.13;;
54372;SDS011;69157;53.094;10.016;2023-08-07T08:09:05;2.15;;;1.05;;
54372;SDS011;69157;53.094;10.016;2023-08-07T08:11:34;2.85;;;1.10;;
54372;SDS011;69157;53.094;10.016;2023-08-07T08:14:00;2.90;;;1.00;;
54372;SDS011;69157;53.094;10.016;2023-08-07T08:16:26;1.95;;;0.90;;
54372;SDS011;69157;53.094;10.016;2023-08-07T08:18:54;2.42;;;0.95;;
54372;SDS011;69157;53.094;10.016;2023-08-07T08:21:20;3.10;;;0.90;;
54372;SDS011;69157;53.094;10.016;2023-08-07T08:23:46;2.13;;;0.80;;
54372;SDS011;69157;53.094;10.016;2023-08-07T08:26:12;3.17;;;0.75;;
54372;SDS011;69157;53.094;10.016;2023-08-07T08:28:38;3.25;;;1.30;;
54372;SDS011;69157;53.094;10.016;2023-08-07T08:31:05;5.00;;;1.00;;
54372;SDS011;69157;53.094;10.016;2023-08-07T08:33:31;3.85;;;1.10;;
54372;SDS011;69157;53.094;10.016;2023-08-07T08:35:58;4.63;;;1.20;;
54372;SDS011;69157;53.094;10.016;2023-08-07T08:38:24;2.47;;;0.98;;
54372;SDS011;69157;53.094;10.016;2023-08-07T08:40:54;2.67;;;0.80;;
54372;SDS011;69157;53.094;10.016;2023-08-07T08:43:20;1.05;;;0.70;;
54372;SDS011;69157;53.094;10.016;2023-08-07T08:45:46;2.83;;;1.10;;
54372;SDS011;69157;53.094;10.016;2023-08-07T08:48:13;5.68;;;0.82;;
54372;SDS011;69157;53.094;10.016;2023-08-07T08:50:43;2.80;;;0.88;;
54372;SDS011;69157;53.094;10.016;2023-08-07T08:53:09;2.40;;;0.93;;
54372;SDS011;69157;53.094;10.016;2023-08-07T08:55:36;2.15;;;1.25;;
54372;SDS011;69157;53.094;10.016;2023-08-07T08:58:02;4.95;;;1.20;;
54372;SDS011;69157;53.094;10.016;2023-08-07T09:00:28;2.65;;;0.90;;
54372;SDS011;69157;53.094;10.016;2023-08-07T09:02:55;3.67;;;1.02;;
54372;SDS011;69157;53.094;10.016;2023-08-07T09:05:21;3.25;;;1.10;;
54372;SDS011;69157;53.094;10.016;2023-08-07T09:07:48;3.22;;;1.00;;
54372;SDS011;69157;53.094;10.016;2023-08-07T09:10:14;3.92;;;1.10;;
54372;SDS011;69157;53.094;10.016;2023-08-07T09:12:42;2.55;;;0.98;;
54372;SDS011;69157;53.094;10.016;2023-08-07T09:15:08;5.38;;;1.13;;
54372;SDS011;69157;53.094;10.016;2023-08-07T09:17:37;4.93;;;1.23;;
54372;SDS011;69157;53.094;10.016;2023-08-07T09:20:05;5.88;;;1.02;;
54372;SDS011;69157;53.094;10.016;2023-08-07T09:22:35;3.75;;;1.00;;
54372;SDS011;69157;53.094;10.016;2023-08-07T09:25:02;3.05;;;1.00;;
54372;SDS011;69157;53.094;10.016;2023-08-07T09:27:28;2.42;;;0.98;;
54372;SDS011;69157;53.094;10.016;2023-08-07T09:29:54;6.13;;;1.05;;
54372;SDS011;69157;53.094;10.016;2023-08-07T09:32:21;1.75;;;0.82;;
54372;SDS011;69157;53.094;10.016;2023-08-07T09:34:49;2.92;;;0.95;;
54372;SDS011;69157;53.094;10.016;2023-08-07T09:37:16;6.70;;;1.27;;
54372;SDS011;69157;53.094;10.016;2023-08-07T09:39:42;2.33;;;0.70;;
54372;SDS011;69157;53.094;10.016;2023-08-07T09:42:14;3.15;;;0.90;;
54372;SDS011;69157;53.094;10.016;2023-08-07T09:44:41;3.55;;;1.10;;
54372;SDS011;69157;53.094;10.016;2023-08-07T09:47:11;3.30;;;1.00;;
54372;SDS011;69157;53.094;10.016;2023-08-07T09:49:38;0.55;;;0.50;;
54372;SDS011;69157;53.094;10.016;2023-08-07T09:52:05;2.45;;;0.85;;
54372;SDS011;69157;53.094;10.016;2023-08-07T09:54:32;3.55;;;0.70;;
54372;SDS011;69157;53.094;10.016;2023-08-07T09:56:59;2.67;;;0.70;;
54372;SDS011;69157;53.094;10.016;2023-08-07T09:59:26;4.95;;;0.80;;
54372;SDS011;69157;53.094;10.016;2023-08-07T10:01:52;0.95;;;0.70;;
54372;SDS011;69157;53.094;10.016;2023-08-07T10:04:19;3.35;;;0.88;;
54372;SDS011;69157;53.094;10.016;2023-08-07T10:06:45;1.65;;;0.70;;
54372;SDS011;69157;53.094;10.016;2023-08-07T10:09:12;3.45;;;0.90;;
54372;SDS011;69157;53.094;10.016;2023-08-07T10:11:38;2.83;;;0.60;;
54372;SDS011;69157;53.094;10.016;2023-08-07T10:14:10;1.10;;;0.90;;
54372;SDS011;69157;53.094;10.016;2023-08-07T10:16:36;1.10;;;0.60;;
54372;SDS011;69157;53.094;10.016;2023-08-07T10:19:05;3.00;;;0.88;;
54372;SDS011;69157;53.094;10.016;2023-08-07T10:21:32;2.05;;;0.52;;
54372;SDS011;69157;53.094;10.016;2023-08-07T10:23:58;1.38;;;0.50;;
54372;SDS011;69157;53.094;10.016;2023-08-07T10:26:25;2.75;;;1.02;;
54372;SDS011;69157;53.094;10.016;2023-08-07T10:28:52;4.35;;;1.15;;
54372;SDS011;69157;53.094;10.016;2023-08-07T10:31:18;1.25;;;0.68;;
54372;SDS011;69157;53.094;10.016;2023-08-07T10:33:46;3.88;;;0.85;;
54372;SDS011;69157;53.094;10.016;2023-08-07T10:36:12;0.68;;;0.40;;
54372;SDS011;69157;53.094;10.016;2023-08-07T10:38:42;1.75;;;0.82;;
54372;SDS011;69157;53.094;10.016;2023-08-07T10:41:08;5.22;;;0.93;;
54372;SDS011;69157;53.094;10.016;2023-08-07T10:43:44;1.27;;;0.68;;
54372;SDS011;69157;53.094;10.016;2023-08-07T10:48:43;2.88;;;0.70;;
54372;SDS011;69157;53.094;10.016;2023-08-07T10:51:12;2.03;;;0.75;;
54372;SDS011;69157;53.094;10.016;2023-08-07T10:53:42;2.05;;;0.90;;
54372;SDS011;69157;53.094;10.016;2023-08-07T10:56:11;1.25;;;0.88;;
54372;SDS011;69157;53.094;10.016;2023-08-07T10:58:40;3.78;;;0.90;;
54372;SDS011;69157;53.094;10.016;2023-08-07T11:01:39;2.65;;;0.82;;
54372;SDS011;69157;53.094;10.016;2023-08-07T11:04:06;1.65;;;0.80;;
54372;SDS011;69157;53.094;10.016;2023-08-07T11:06:33;2.47;;;0.70;;
54372;SDS011;69157;53.094;10.016;2023-08-07T11:09:00;1.73;;;0.80;;
54372;SDS011;69157;53.094;10.016;2023-08-07T11:11:28;2.42;;;0.75;;
54372;SDS011;69157;53.094;10.016;2023-08-07T11:13:54;2.53;;;0.80;;
54372;SDS011;69157;53.094;10.016;2023-08-07T11:16:20;2.95;;;0.80;;
54372;SDS011;69157;53.094;10.016;2023-08-07T11:18:47;3.10;;;0.75;;
54372;SDS011;69157;53.094;10.016;2023-08-07T11:21:13;2.30;;;0.98;;
54372;SDS011;69157;53.094;10.016;2023-08-07T11:23:42;2.78;;;0.70;;
54372;SDS011;69157;53.094;10.016;2023-08-07T11:26:09;2.90;;;0.85;;
54372;SDS011;69157;53.094;10.016;2023-08-07T11:28:35;2.85;;;0.65;;
54372;SDS011;69157;53.094;10.016;2023-08-07T11:31:01;3.13;;;0.85;;
54372;SDS011;69157;53.094;10.016;2023-08-07T11:33:28;2.90;;;1.05;;
54372;SDS011;69157;53.094;10.016;2023-08-07T11:35:54;1.75;;;0.80;;
54372;SDS011;69157;53.094;10.016;2023-08-07T11:38:33;3.53;;;1.20;;
54372;SDS011;69157;53.094;10.016;2023-08-07T11:41:00;1.33;;;0.73;;
54372;SDS011;69157;53.094;10.016;2023-08-07T11:43:27;3.78;;;0.82;;
54372;SDS011;69157;53.094;10.016;2023-08-07T11:45:53;1.92;;;0.65;;
54372;SDS011;69157;53.094;10.016;2023-08-07T11:48:22;2.10;;;0.75;;
54372;SDS011;69157;53.094;10.016;2023-08-07T11:50:49;2.15;;;0.93;;
54372;SDS011;69157;53.094;10.016;2023-08-07T11:53:15;3.00;;;0.80;;
54372;SDS011;69157;53.094;10.016;2023-08-07T11:55:51;3.95;;;1.27;;
54372;SDS011;69157;53.094;10.016;2023-08-07T11:58:17;2.05;;;0.60;;
54372;SDS011;69157;53.094;10.016;2023-08-07T12:00:43;4.18;;;0.80;;
54372;SDS011;69157;53.094;10.016;2023-08-07T12:05:52;4.05;;;0.75;;
54372;SDS011;69157;53.094;10.016;2023-08-07T12:08:18;5.03;;;0.73;;
54372;SDS011;69157;53.094;10.016;2023-08-07T12:10:48;5.75;;;0.77;;
54372;SDS011;69157;53.094;10.016;2023-08-07T12:13:14;3.72;;;1.00;;
54372;SDS011;69157;53.094;10.016;2023-08-07T12:15:41;1.98;;;0.85;;
54372;SDS011;69157;53.094;10.016;2023-08-07T12:18:07;1.40;;;0.80;;
54372;SDS011;69157;53.094;10.016;2023-08-07T12:20:33;2.25;;;0.80;;
54372;SDS011;69157;53.094;10.016;2023-08-07T12:22:59;2.72;;;0.85;;
54372;SDS011;69157;53.094;10.016;2023-08-07T12:25:25;3.72;;;0.98;;
54372;SDS011;69157;53.094;10.016;2023-08-07T12:27:51;3.65;;;1.00;;
54372;SDS011;69157;53.094;10.016;2023-08-07T12:30:18;1.63;;;0.93;;
54372;SDS011;69157;53.094;10.016;2023-08-07T12:32:44;1.75;;;0.80;;
54372;SDS011;69157;53.094;10.016;2023-08-07T12:35:10;2.15;;;0.73;;
54372;SDS011;69157;53.094;10.016;2023-08-07T12:37:36;2.55;;;0.70;;
54372;SDS011;69157;53.094;10.016;2023-08-07T12:40:03;1.70;;;1.00;;
54372;SDS011;69157;53.094;10.016;2023-08-07T12:42:31;2.28;;;0.90;;
54372;SDS011;69157;53.094;10.016;2023-08-07T12:44:57;4.90;;;1.08;;
54372;SDS011;69157;53.094;10.016;2023-08-07T12:47:23;6.13;;;1.30;;
54372;SDS011;69157;53.094;10.016;2023-08-07T12:49:50;3.55;;;1.00;;
54372;SDS011;69157;53.094;10.016;2023-08-07T12:52:16;3.63;;;1.17;;
54372;SDS011;69157;53.094;10.016;2023-08-07T12:54:42;3.13;;;0.93;;
54372;SDS011;69157;53.094;10.016;2023-08-07T12:57:08;6.40;;;1.20;;
54372;SDS011;69157;53.094;10.016;2023-08-07T12:59:34;2.30;;;1.08;;
54372;SDS011;69157;53.094;10.016;2023-08-07T13:02:00;3.10;;;1.10;;
54372;SDS011;69157;53.094;10.016;2023-08-07T13:04:26;2.45;;;1.00;;
54372;SDS011;69157;53.094;10.016;2023-08-07T13:06:52;2.30;;;1.00;;
54372;SDS011;69157;53.094;10.016;2023-08-07T13:09:18;0.95;;;0.75;;
54372;SDS011;69157;53.094;10.016;2023-08-07T13:11:45;3.38;;;0.93;;
54372;SDS011;69157;53.094;10.016;2023-08-07T13:14:11;2.78;;;1.15;;
54372;SDS011;69157;53.094;10.016;2023-08-07T13:16:37;3.40;;;0.68;;
54372;SDS011;69157;53.094;10.016;2023-08-07T13:19:03;2.63;;;0.90;;
54372;SDS011;69157;53.094;10.016;2023-08-07T13:21:30;5.90;;;0.80;;
54372;SDS011;69157;53.094;10.016;2023-08-07T13:23:56;2.38;;;0.93;;
54372;SDS011;69157;53.094;10.016;2023-08-07T13:26:22;1.60;;;1.30;;
54372;SDS011;69157;53.094;10.016;2023-08-07T13:28:48;2.60;;;0.70;;
54372;SDS011;69157;53.094;10.016;2023-08-07T13:31:16;4.53;;;0.80;;
54372;SDS011;69157;53.094;10.016;2023-08-07T13:33:42;3.40;;;0.90;;
54372;SDS011;69157;53.094;10.016;2023-08-07T13:36:08;3.10;;;0.93;;
54372;SDS011;69157;53.094;10.016;2023-08-07T13:38:35;1.45;;;0.73;;
54372;SDS011;69157;53.094;10.016;2023-08-07T13:41:01;2.33;;;0.65;;
54372;SDS011;69157;53.094;10.016;2023-08-07T13:43:27;3.08;;;0.90;;
54372;SDS011;69157;53.094;10.016;2023-08-07T13:45:53;2.00;;;0.73;;
54372;SDS011;69157;53.094;10.016;2023-08-07T13:48:19;1.08;;;0.57;;
54372;SDS011;69157;53.094;10.016;2023-08-07T13:50:46;2.55;;;0.65;;
54372;SDS011;69157;53.094;10.016;2023-08-07T13:53:12;2.25;;;0.60;;
54372;SDS011;69157;53.094;10.016;2023-08-07T13:55:38;2.58;;;0.85;;
54372;SDS011;69157;53.094;10.016;2023-08-07T13:58:05;4.10;;;0.88;;
54372;SDS011;69157;53.094;10.016;2023-08-07T14:00:31;2.67;;;1.30;;
54372;SDS011;69157;53.094;10.016;2023-08-07T14:02:59;1.70;;;0.50;;
54372;SDS011;69157;53.094;10.016;2023-08-07T14:05:25;1.85;;;0.60;;
54372;SDS011;69157;53.094;10.016;2023-08-07T14:07:51;1.17;;;0.47;;
54372;SDS011;69157;53.094;10.016;2023-08-07T14:10:18;2.92;;;0.80;;
54372;SDS011;69157;53.094;10.016;2023-08-07T14:12:44;2.67;;;0.80;;
54372;SDS011;69157;53.094;10.016;2023-08-07T14:15:11;1.85;;;0.85;;
54372;SDS011;69157;53.094;10.016;2023-08-07T14:17:38;2.45;;;0.85;;
54372;SDS011;69157;53.094;10.016;2023-08-07T14:20:04;2.38;;;0.98;;
54372;SDS011;69157;53.094;10.016;2023-08-07T14:22:30;1.70;;;0.80;;
54372;SDS011;69157;53.094;10.016;2023-08-07T14:24:57;3.70;;;1.23;;
54372;SDS011;69157;53.094;10.016;2023-08-07T14:27:23;1.13;;;0.57;;
54372;SDS011;69157;53.094;10.016;2023-08-07T14:29:49;3.33;;;0.98;;
54372;SDS011;69157;53.094;10.016;2023-08-07T14:32:15;1.77;;;0.70;;
54372;SDS011;69157;53.094;10.016;2023-08-07T14:34:41;1.85;;;0.77;;
54372;SDS011;69157;53.094;10.016;2023-08-07T14:37:07;2.90;;;0.80;;